createdAt,value
2023-05-04T00:01:15.994Z,10.77
2023-05-04T00:03:44.006Z,9.38
2023-05-04T00:06:12.635Z,11.07
2023-05-04T00:08:40.445Z,11.05
2023-05-04T00:11:08.769Z,14.38
2023-05-04T00:13:37.223Z,11.60
2023-05-04T00:16:08.562Z,10.20
2023-05-04T00:18:38.690Z,11.98
2023-05-04T00:21:07.090Z,9.88
2023-05-04T00:23:35.163Z,10.90
2023-05-04T00:26:03.752Z,13.85
2023-05-04T00:28:31.733Z,13.17
2023-05-04T00:30:59.650Z,12.30
2023-05-04T00:33:29.080Z,12.52
2023-05-04T00:35:56.920Z,11.35
2023-05-04T00:38:24.821Z,12.95
2023-05-04T00:40:53.169Z,11.60
2023-05-04T00:43:20.958Z,12.60
2023-05-04T00:45:49.155Z,14.07
2023-05-04T00:48:17.783Z,11.05
2023-05-04T00:50:46.913Z,12.95
2023-05-04T00:53:15.149Z,11.73
2023-05-04T00:55:43.731Z,12.20
2023-05-04T00:58:11.555Z,13.48
2023-05-04T01:00:39.394Z,8.95
2023-05-04T01:03:08.043Z,11.07
2023-05-04T01:05:39.697Z,13.85
2023-05-04T01:11:11.527Z,9.35
2023-05-04T01:13:40.457Z,11.82
2023-05-04T01:16:08.546Z,12.57
2023-05-04T01:18:36.456Z,10.02
2023-05-04T01:21:04.969Z,9.95
2023-05-04T01:23:34.375Z,10.65
2023-05-04T01:26:08.819Z,13.65
2023-05-04T01:28:43.059Z,10.02
2023-05-04T01:31:13.991Z,12.50
2023-05-04T01:33:42.551Z,11.77
2023-05-04T01:36:10.517Z,10.85
2023-05-04T01:38:40.182Z,11.35
2023-05-04T01:43:35.752Z,11.77
2023-05-04T01:46:04.201Z,11.45
2023-05-04T01:48:32.052Z,11.90
2023-05-04T01:50:59.826Z,10.82
2023-05-04T01:53:28.509Z,11.55
2023-05-04T01:55:57.650Z,11.83
2023-05-04T01:58:25.484Z,12.57
2023-05-04T02:00:53.268Z,12.88
2023-05-04T02:03:21.151Z,12.10
2023-05-04T02:05:48.943Z,9.95
2023-05-04T02:08:17.407Z,10.20
2023-05-04T02:10:45.246Z,9.63
2023-05-04T02:13:14.456Z,12.05
2023-05-04T02:15:42.992Z,8.05
2023-05-04T02:18:10.919Z,13.63
2023-05-04T02:20:38.859Z,9.07
2023-05-04T02:23:07.660Z,10.55
2023-05-04T02:25:35.448Z,10.88
2023-05-04T02:28:03.226Z,10.63
2023-05-04T02:30:32.928Z,10.15
2023-05-04T02:35:28.361Z,9.50
2023-05-04T02:37:56.695Z,13.88
2023-05-04T02:40:24.478Z,10.73
2023-05-04T02:42:52.281Z,9.73
2023-05-04T02:45:20.700Z,10.48
2023-05-04T02:47:49.866Z,9.07
2023-05-04T02:50:17.692Z,15.75
2023-05-04T02:52:45.500Z,16.48
2023-05-04T02:55:13.328Z,9.32
2023-05-04T02:57:41.116Z,11.38
2023-05-04T03:00:10.428Z,13.38
2023-05-04T03:02:38.281Z,10.77
2023-05-04T03:05:08.085Z,10.40
2023-05-04T03:07:36.296Z,11.27
2023-05-04T03:10:04.562Z,11.07
2023-05-04T03:12:32.554Z,10.35
2023-05-04T03:15:00.991Z,10.00
2023-05-04T03:17:28.853Z,10.00
2023-05-04T03:19:56.749Z,11.52
2023-05-04T03:22:26.790Z,10.90
2023-05-04T03:24:54.733Z,10.90
2023-05-04T03:27:22.533Z,14.75
2023-05-04T03:29:50.858Z,9.20
2023-05-04T03:32:18.622Z,9.85
2023-05-04T03:34:46.819Z,11.00
2023-05-04T03:37:15.142Z,10.27
2023-05-04T03:39:44.290Z,12.15
2023-05-04T03:42:12.417Z,12.77
2023-05-04T03:44:41.348Z,12.32
2023-05-04T03:47:09.111Z,14.65
2023-05-04T03:49:37.102Z,12.77
2023-05-04T03:52:05.640Z,10.38
2023-05-04T03:54:33.398Z,11.63
2023-05-04T03:57:04.437Z,13.75
2023-05-04T03:59:32.931Z,12.15
2023-05-04T04:02:01.325Z,10.40
2023-05-04T04:04:29.160Z,12.30
2023-05-04T04:06:57.582Z,14.02
2023-05-04T04:09:25.451Z,11.65
2023-05-04T04:11:53.258Z,10.43
2023-05-04T04:14:22.839Z,12.32
2023-05-04T04:16:50.610Z,13.82
2023-05-04T04:19:18.389Z,11.13
2023-05-04T04:21:46.776Z,15.55
2023-05-04T04:24:14.716Z,13.65
2023-05-04T04:26:42.458Z,12.10
2023-05-04T04:29:10.617Z,6.00
2023-05-04T04:31:40.407Z,8.10
2023-05-04T04:34:08.272Z,7.85
2023-05-04T04:36:36.474Z,8.50
2023-05-04T04:39:05.921Z,9.20
2023-05-04T04:41:33.756Z,8.48
2023-05-04T04:44:02.905Z,11.90
2023-05-04T04:46:30.866Z,10.10
2023-05-04T04:49:00.023Z,9.52
2023-05-04T04:51:28.341Z,15.35
2023-05-04T04:53:56.149Z,12.63
2023-05-04T04:56:23.935Z,12.18
2023-05-04T04:58:52.286Z,10.55
2023-05-04T05:01:20.070Z,12.30
2023-05-04T05:03:49.154Z,12.98
2023-05-04T05:06:18.764Z,12.00
2023-05-04T05:08:46.743Z,15.32
2023-05-04T05:11:14.502Z,14.68
2023-05-04T05:13:42.851Z,11.43
2023-05-04T05:16:10.750Z,12.90
2023-05-04T05:18:38.548Z,12.43
2023-05-04T05:21:07.883Z,10.77
2023-05-04T05:23:37.044Z,13.18
2023-05-04T05:26:04.857Z,10.63
2023-05-04T05:28:33.449Z,12.77
2023-05-04T05:31:01.278Z,12.38
2023-05-04T05:33:29.075Z,12.23
2023-05-04T05:35:57.501Z,11.70
2023-05-04T05:38:26.776Z,11.05
2023-05-04T05:40:56.156Z,12.60
2023-05-04T05:43:24.640Z,14.93
2023-05-04T05:45:52.459Z,14.35
2023-05-04T05:48:20.282Z,13.52
2023-05-04T05:50:48.748Z,15.30
2023-05-04T05:53:16.545Z,10.82
2023-05-04T05:55:44.307Z,11.88
2023-05-04T05:58:14.414Z,12.00
2023-05-04T06:00:42.394Z,10.13
2023-05-04T06:03:10.461Z,11.20
2023-05-04T06:05:38.890Z,10.85
2023-05-04T06:08:06.759Z,12.07
2023-05-04T06:10:35.008Z,10.48
2023-05-04T06:13:03.462Z,13.18
2023-05-04T06:15:32.630Z,9.80
2023-05-04T06:18:00.505Z,13.00
2023-05-04T06:20:29.829Z,10.32
2023-05-04T06:22:58.280Z,9.40
2023-05-04T06:25:26.074Z,11.38
2023-05-04T06:27:54.375Z,10.35
2023-05-04T06:30:24.390Z,9.65
2023-05-04T06:32:53.611Z,12.75
2023-05-04T06:35:22.030Z,11.02
2023-05-04T06:40:22.905Z,9.27
2023-05-04T06:42:50.861Z,9.00
2023-05-04T06:45:19.180Z,10.07
2023-05-04T06:47:47.812Z,10.38
2023-05-04T06:50:17.235Z,12.43
2023-05-04T06:52:46.478Z,13.20
2023-05-04T06:55:15.056Z,9.63
2023-05-04T06:57:42.856Z,10.27
2023-05-04T07:00:11.874Z,10.70
2023-05-04T07:02:40.177Z,9.25
2023-05-04T07:05:08.750Z,9.00
2023-05-04T07:07:38.176Z,7.32
2023-05-04T07:10:07.343Z,8.77
2023-05-04T07:12:35.227Z,8.52
2023-05-04T07:15:03.426Z,7.53
2023-05-04T07:17:34.009Z,5.53
2023-05-04T07:20:03.358Z,9.52
2023-05-04T07:25:01.147Z,11.10
2023-05-04T07:27:29.035Z,9.20
2023-05-04T07:29:57.199Z,8.05
2023-05-04T07:32:25.789Z,8.15
2023-05-04T07:34:53.628Z,6.87
2023-05-04T07:37:21.409Z,10.65
2023-05-04T07:39:49.815Z,6.82
2023-05-04T07:42:19.020Z,7.25
2023-05-04T07:44:47.041Z,10.65
2023-05-04T07:47:15.202Z,8.73
2023-05-04T07:49:43.013Z,10.32
2023-05-04T07:52:11.060Z,12.55
2023-05-04T07:54:39.383Z,8.80
2023-05-04T07:57:07.267Z,5.55
2023-05-04T07:59:36.690Z,7.80
2023-05-04T08:02:05.117Z,8.20
2023-05-04T08:04:33.048Z,8.25
2023-05-04T08:07:01.235Z,8.15
2023-05-04T08:09:29.723Z,8.32
2023-05-04T08:11:57.543Z,8.93
2023-05-04T08:14:25.312Z,7.35
2023-05-04T08:16:55.433Z,7.35
2023-05-04T08:19:23.703Z,7.05
2023-05-04T08:21:51.579Z,6.68
2023-05-04T08:24:20.189Z,5.72
2023-05-04T08:26:59.697Z,6.57
2023-05-04T08:29:37.776Z,8.73
2023-05-04T08:32:09.295Z,5.18
2023-05-04T08:34:39.270Z,8.50
2023-05-04T08:37:07.466Z,7.35
2023-05-04T08:39:35.650Z,7.90
2023-05-04T08:42:04.595Z,6.65
2023-05-04T08:44:32.758Z,8.13
2023-05-04T08:47:04.907Z,4.90
2023-05-04T08:49:34.329Z,4.72
2023-05-04T08:52:05.536Z,6.35
2023-05-04T08:54:35.221Z,6.30
2023-05-04T08:57:06.144Z,8.52
2023-05-04T08:59:34.668Z,5.65
2023-05-04T09:02:04.004Z,5.67
2023-05-04T09:07:01.890Z,9.43
2023-05-04T09:09:31.410Z,5.63
2023-05-04T09:12:00.223Z,6.35
2023-05-04T09:14:34.509Z,6.88
2023-05-04T09:17:03.296Z,6.10
2023-05-04T09:19:34.656Z,6.70
2023-05-04T09:22:15.153Z,7.28
2023-05-04T09:24:42.938Z,7.30
2023-05-04T09:27:11.790Z,5.38
2023-05-04T09:29:41.250Z,6.25
2023-05-04T09:34:52.801Z,6.15
2023-05-04T09:37:22.993Z,5.28
2023-05-04T09:39:55.876Z,10.07
2023-05-04T09:42:24.467Z,7.18
2023-05-04T09:45:03.873Z,5.27
2023-05-04T09:47:36.840Z,5.63
2023-05-04T09:50:19.902Z,6.07
2023-05-04T09:52:50.808Z,10.30
2023-05-04T09:55:20.354Z,6.45
2023-05-04T09:57:50.136Z,7.35
2023-05-04T10:00:20.056Z,6.30
2023-05-04T10:02:49.466Z,6.72
2023-05-04T10:10:16.954Z,15.30
2023-05-04T10:12:46.051Z,7.65
2023-05-04T10:15:16.373Z,7.68
2023-05-04T10:17:56.343Z,9.20
2023-05-04T10:20:40.409Z,6.55
2023-05-04T10:23:48.010Z,9.80
2023-05-04T10:26:54.153Z,6.82
2023-05-04T10:29:24.087Z,9.23
2023-05-04T10:31:53.478Z,4.78
2023-05-04T10:36:53.582Z,4.63
2023-05-04T10:39:22.203Z,4.22
2023-05-04T10:42:05.323Z,5.03
2023-05-04T10:44:35.446Z,4.72
2023-05-04T10:47:06.251Z,8.23
2023-05-04T10:49:34.904Z,7.00
2023-05-04T10:52:11.061Z,5.93
2023-05-04T10:54:39.901Z,6.78
2023-05-04T10:57:10.238Z,8.27
2023-05-04T10:59:39.473Z,9.10
2023-05-04T11:02:09.657Z,6.68
2023-05-04T11:04:38.740Z,8.60
2023-05-04T11:07:09.019Z,5.78
2023-05-04T11:09:38.732Z,6.30
2023-05-04T11:12:11.311Z,4.32
2023-05-04T11:14:42.975Z,6.57
2023-05-04T11:17:27.725Z,3.95
2023-05-04T11:19:56.644Z,6.47
2023-05-04T11:22:25.163Z,4.82
2023-05-04T11:24:54.324Z,10.20
2023-05-04T11:27:28.154Z,3.80
2023-05-04T11:30:00.309Z,4.18
2023-05-04T11:32:39.013Z,4.72
2023-05-04T11:35:10.212Z,4.82
2023-05-04T11:37:42.582Z,4.65
2023-05-04T11:40:15.124Z,3.95
2023-05-04T11:42:45.782Z,4.97
2023-05-04T11:45:18.093Z,3.03
2023-05-04T11:47:47.950Z,3.47
2023-05-04T11:50:19.202Z,4.13
2023-05-04T11:52:48.245Z,4.15
2023-05-04T11:55:27.117Z,5.72
2023-05-04T11:58:00.636Z,4.18
2023-05-04T12:00:40.136Z,2.67
2023-05-04T12:03:09.573Z,3.00
2023-05-04T12:05:38.369Z,6.75
2023-05-04T12:08:07.446Z,3.05
2023-05-04T12:10:36.180Z,4.10
2023-05-04T12:13:16.645Z,2.97
2023-05-04T12:15:45.406Z,3.08
2023-05-04T12:18:22.252Z,1.98
2023-05-04T12:20:50.553Z,3.88
2023-05-04T12:23:18.453Z,2.70
2023-05-04T12:25:57.357Z,3.42
2023-05-04T12:28:31.502Z,4.55
2023-05-04T12:30:59.955Z,2.47
2023-05-04T12:33:28.177Z,4.70
2023-05-04T12:35:56.610Z,3.15
2023-05-04T12:38:25.482Z,6.47
2023-05-04T12:40:53.658Z,2.83
2023-05-04T12:43:23.210Z,7.82
2023-05-04T12:45:53.743Z,2.72
2023-05-04T12:48:22.272Z,4.75
2023-05-04T12:50:51.874Z,2.22
2023-05-04T12:53:22.162Z,3.38
2023-05-04T12:55:50.026Z,4.53
2023-05-04T12:58:18.199Z,3.45
2023-05-04T13:00:46.430Z,2.95
2023-05-04T13:03:19.326Z,3.83
2023-05-04T13:05:47.453Z,2.00
2023-05-04T13:08:15.221Z,3.35
2023-05-04T13:10:43.179Z,2.45
2023-05-04T13:13:10.989Z,4.35
2023-05-04T13:15:39.846Z,3.45
2023-05-04T13:18:08.038Z,2.60
2023-05-04T13:20:37.209Z,2.20
2023-05-04T13:23:04.996Z,3.78
2023-05-04T13:25:33.026Z,2.35
2023-05-04T13:28:00.779Z,2.00
2023-05-04T13:30:28.561Z,4.93
2023-05-04T13:32:56.888Z,3.60
2023-05-04T13:35:24.968Z,7.63
2023-05-04T13:37:54.112Z,5.25
2023-05-04T13:40:22.454Z,2.42
2023-05-04T13:42:50.249Z,3.23
2023-05-04T13:45:19.640Z,1.95
2023-05-04T13:47:48.152Z,2.35
2023-05-04T13:50:16.184Z,2.47
2023-05-04T13:52:43.953Z,2.30
2023-05-04T13:55:14.920Z,2.40
2023-05-04T13:57:42.681Z,4.38
2023-05-04T14:00:12.386Z,2.65
2023-05-04T14:02:40.889Z,2.85
2023-05-04T14:05:09.424Z,3.85
2023-05-04T14:07:37.641Z,2.88
2023-05-04T14:10:06.646Z,3.35
2023-05-04T14:12:35.905Z,2.20
2023-05-04T14:17:32.969Z,2.58
2023-05-04T14:20:01.015Z,3.50
2023-05-04T14:22:29.235Z,2.97
2023-05-04T14:24:57.767Z,4.47
2023-05-04T14:27:27.471Z,2.58
2023-05-04T14:29:58.541Z,3.10
2023-05-04T14:32:26.467Z,4.53
2023-05-04T14:34:54.418Z,2.08
2023-05-04T14:37:22.694Z,2.33
2023-05-04T14:39:50.445Z,11.40
2023-05-04T14:42:18.233Z,1.95
2023-05-04T14:44:46.521Z,3.55
2023-05-04T14:47:15.659Z,3.65
2023-05-04T14:49:43.413Z,2.90
2023-05-04T14:52:11.834Z,3.97
2023-05-04T14:54:39.640Z,2.67
2023-05-04T14:57:09.034Z,3.38
2023-05-04T14:59:38.034Z,4.68
2023-05-04T15:02:08.207Z,2.80
2023-05-04T15:04:38.075Z,3.03
2023-05-04T15:07:06.028Z,2.58
2023-05-04T15:09:33.839Z,1.90
2023-05-04T15:12:02.389Z,4.95
2023-05-04T15:14:30.774Z,2.60
2023-05-04T15:16:58.615Z,2.57
2023-05-04T15:19:27.240Z,2.28
2023-05-04T15:21:56.527Z,3.50
2023-05-04T15:26:52.516Z,2.88
2023-05-04T15:29:20.377Z,4.00
2023-05-04T15:31:48.223Z,3.17
2023-05-04T15:34:18.471Z,2.05
2023-05-04T15:36:46.751Z,3.80
2023-05-04T15:39:16.086Z,4.55
2023-05-04T15:44:11.827Z,3.20
2023-05-04T15:46:39.673Z,2.95
2023-05-04T15:49:07.884Z,2.08
2023-05-04T15:51:35.694Z,4.43
2023-05-04T15:54:04.176Z,2.97
2023-05-04T15:56:33.953Z,4.75
2023-05-04T15:59:01.941Z,1.80
2023-05-04T16:01:29.875Z,2.95
2023-05-04T16:04:00.206Z,5.03
2023-05-04T16:06:28.700Z,2.85
2023-05-04T16:08:56.662Z,2.25
2023-05-04T16:11:24.971Z,2.83
2023-05-04T16:13:54.222Z,3.10
2023-05-04T16:18:50.094Z,4.65
2023-05-04T16:21:17.958Z,3.35
2023-05-04T16:23:45.861Z,3.25
2023-05-04T16:26:15.771Z,3.10
2023-05-04T16:28:45.240Z,4.53
2023-05-04T16:31:14.537Z,2.88
2023-05-04T16:33:47.774Z,2.33
2023-05-04T16:36:15.960Z,2.83
2023-05-04T16:38:43.776Z,3.53
2023-05-04T16:41:11.786Z,2.70
2023-05-04T16:43:39.549Z,3.15
2023-05-04T16:46:07.371Z,2.92
2023-05-04T16:48:37.561Z,2.65
2023-05-04T16:51:06.066Z,3.83
2023-05-04T16:53:34.048Z,2.67
2023-05-04T16:56:02.026Z,4.35
2023-05-04T16:58:30.274Z,4.65
2023-05-04T17:00:58.427Z,2.40
2023-05-04T17:03:26.532Z,3.58
2023-05-04T17:05:55.796Z,3.85
2023-05-04T17:08:24.981Z,3.67
2023-05-04T17:10:52.967Z,2.78
2023-05-04T17:13:20.858Z,2.78
2023-05-04T17:15:48.774Z,5.18
2023-05-04T17:18:16.821Z,4.57
2023-05-04T17:20:44.601Z,2.55
2023-05-04T17:23:14.131Z,4.97
2023-05-04T17:25:42.197Z,2.92
2023-05-04T17:28:09.964Z,10.77
2023-05-04T17:30:38.101Z,5.88
2023-05-04T17:33:06.228Z,4.28
2023-05-04T17:35:34.296Z,2.97
2023-05-04T17:38:02.075Z,3.22
2023-05-04T17:40:31.470Z,2.53
2023-05-04T17:45:28.068Z,5.80
2023-05-04T17:47:56.108Z,6.18
2023-05-04T17:50:24.491Z,3.00
2023-05-04T17:52:53.300Z,2.97
2023-05-04T17:55:21.416Z,3.42
2023-05-04T17:57:50.796Z,4.63
2023-05-04T18:02:47.213Z,5.40
2023-05-04T18:05:15.065Z,5.10
2023-05-04T18:07:42.983Z,4.10
2023-05-04T18:10:11.982Z,4.20
2023-05-04T18:12:39.822Z,4.28
2023-05-04T18:15:10.758Z,5.15
2023-05-04T18:17:38.931Z,3.05
2023-05-04T18:20:09.032Z,4.80
2023-05-04T18:22:37.706Z,4.47
2023-05-04T18:25:07.006Z,8.17
2023-05-04T18:27:34.898Z,4.38
2023-05-04T18:30:03.374Z,3.05
2023-05-04T18:32:32.902Z,3.50
2023-05-04T18:35:01.428Z,4.88
2023-05-04T18:37:30.715Z,10.00
2023-05-04T18:39:58.786Z,3.50
2023-05-04T18:42:27.109Z,3.55
2023-05-04T18:44:56.135Z,3.67
2023-05-04T18:47:24.425Z,4.70
2023-05-04T18:49:56.182Z,3.35
2023-05-04T18:52:25.143Z,3.60
2023-05-04T18:54:52.910Z,3.47
2023-05-04T18:57:20.701Z,5.07
2023-05-04T18:59:48.681Z,3.83
2023-05-04T19:02:17.374Z,5.22
2023-05-04T19:04:46.805Z,7.00
2023-05-04T19:07:17.368Z,5.35
2023-05-04T19:09:46.348Z,7.70
2023-05-04T19:12:15.427Z,3.50
2023-05-04T19:14:44.386Z,3.78
2023-05-04T19:17:14.536Z,3.90
2023-05-04T19:19:42.344Z,5.95
2023-05-04T19:22:11.664Z,6.70
2023-05-04T19:24:41.224Z,3.83
2023-05-04T19:27:09.466Z,7.43
2023-05-04T19:29:37.512Z,7.65
2023-05-04T19:32:19.721Z,4.47
2023-05-04T19:34:51.738Z,3.42
2023-05-04T19:37:19.557Z,5.10
2023-05-04T19:39:48.712Z,3.30
2023-05-04T19:42:17.118Z,6.32
2023-05-04T19:44:44.967Z,5.50
2023-05-04T19:47:12.804Z,7.10
2023-05-04T19:49:41.066Z,5.15
2023-05-04T19:52:08.868Z,4.43
2023-05-04T19:54:38.292Z,5.97
2023-05-04T19:57:08.130Z,5.93
2023-05-04T19:59:35.995Z,5.28
2023-05-04T20:02:03.971Z,7.90
2023-05-04T20:04:32.550Z,5.25
2023-05-04T20:07:00.314Z,4.50
2023-05-04T20:09:28.944Z,4.55
2023-05-04T20:11:57.436Z,5.32
2023-05-04T20:14:26.615Z,4.10
2023-05-04T20:16:55.853Z,5.03
2023-05-04T20:19:24.201Z,6.50
2023-05-04T20:21:51.964Z,4.82
2023-05-04T20:24:19.770Z,6.65
2023-05-04T20:26:47.736Z,4.60
2023-05-04T20:29:15.494Z,5.80
2023-05-04T20:31:44.717Z,6.68
2023-05-04T20:34:12.712Z,5.88
2023-05-04T20:36:40.476Z,5.75
2023-05-04T20:39:08.236Z,4.03
2023-05-04T20:41:36.197Z,5.50
2023-05-04T20:44:04.358Z,5.20
2023-05-04T20:46:32.826Z,6.70
2023-05-04T20:49:02.991Z,6.07
2023-05-04T20:51:31.110Z,5.05
2023-05-04T20:53:58.921Z,5.93
2023-05-04T20:56:27.006Z,6.28
2023-05-04T20:58:55.215Z,6.30
2023-05-04T21:01:23.160Z,5.45
2023-05-04T21:03:51.323Z,5.68
2023-05-04T21:06:20.979Z,4.88
2023-05-04T21:08:48.772Z,6.53
2023-05-04T21:11:16.863Z,7.47
2023-05-04T21:13:44.645Z,6.00
2023-05-04T21:16:12.967Z,9.40
2023-05-04T21:18:41.088Z,7.60
2023-05-04T21:21:09.087Z,5.63
2023-05-04T21:23:38.327Z,4.20
2023-05-04T21:26:07.773Z,7.13
2023-05-04T21:31:09.395Z,6.43
2023-05-04T21:33:37.396Z,7.45
2023-05-04T21:36:12.487Z,5.93
2023-05-04T21:38:42.654Z,4.82
2023-05-04T21:41:12.563Z,6.57
2023-05-04T21:43:40.412Z,9.30
2023-05-04T21:46:08.219Z,7.10
2023-05-04T21:48:36.993Z,6.60
2023-05-04T21:51:05.107Z,5.93
2023-05-04T21:53:34.047Z,4.97
2023-05-04T21:56:08.835Z,7.10
2023-05-04T21:58:37.265Z,6.22
2023-05-04T22:01:05.671Z,7.95
2023-05-04T22:03:34.230Z,5.55
2023-05-04T22:06:02.166Z,5.90
2023-05-04T22:08:30.068Z,12.20
2023-05-04T22:10:59.266Z,6.85
2023-05-04T22:13:28.524Z,5.93
2023-05-04T22:15:56.321Z,6.30
2023-05-04T22:18:24.754Z,5.90
2023-05-04T22:20:52.529Z,5.95
2023-05-04T22:23:20.421Z,6.00
2023-05-04T22:25:48.683Z,5.53
2023-05-04T22:28:16.465Z,5.93
2023-05-04T22:30:45.662Z,6.68
2023-05-04T22:33:13.556Z,7.00
2023-05-04T22:35:41.377Z,7.35
2023-05-04T22:38:09.458Z,9.63
2023-05-04T22:40:40.546Z,7.93
2023-05-04T22:43:08.523Z,9.27
2023-05-04T22:45:36.681Z,8.18
2023-05-04T22:48:06.343Z,7.72
2023-05-04T22:50:34.346Z,9.75
2023-05-04T22:53:02.157Z,9.85
2023-05-04T22:55:30.676Z,9.52
2023-05-04T22:57:58.504Z,11.43
2023-05-04T23:00:26.602Z,14.52
2023-05-04T23:02:55.073Z,13.10
2023-05-04T23:05:24.478Z,12.80
2023-05-04T23:07:52.555Z,15.68
2023-05-04T23:10:21.213Z,14.60
2023-05-04T23:12:49.022Z,15.43
2023-05-04T23:15:18.051Z,14.05
2023-05-04T23:17:46.480Z,16.73
2023-05-04T23:20:14.489Z,15.48
2023-05-04T23:22:43.672Z,15.35
2023-05-04T23:25:12.203Z,14.95
2023-05-04T23:27:39.981Z,16.17
2023-05-04T23:30:09.205Z,15.07
2023-05-04T23:32:38.012Z,15.27
2023-05-04T23:35:07.494Z,15.77
2023-05-04T23:37:35.355Z,14.57
2023-05-04T23:40:05.787Z,14.48
2023-05-04T23:42:33.650Z,15.00
2023-05-04T23:45:01.457Z,18.77
2023-05-04T23:47:29.771Z,16.02
2023-05-04T23:49:57.580Z,16.55
2023-05-04T23:52:25.366Z,13.38
2023-05-04T23:54:55.104Z,12.88
2023-05-04T23:57:24.266Z,13.57
2023-05-04T23:59:53.728Z,13.10
